createdAt,value
2018-08-19T00:01:20.010Z,21.17
2018-08-19T00:03:48.422Z,20.13
2018-08-19T00:06:16.863Z,12.07
2018-08-19T00:08:45.337Z,8.53
2018-08-19T00:11:13.811Z,8.80
2018-08-19T00:13:42.227Z,14.10
2018-08-19T00:16:11.218Z,16.67
2018-08-19T00:18:39.702Z,15.80
2018-08-19T00:21:10.772Z,11.00
2018-08-19T00:23:44.523Z,8.50
2018-08-19T00:26:14.750Z,8.33
2018-08-19T00:28:43.262Z,8.20
2018-08-19T00:31:11.691Z,6.70
2018-08-19T00:33:40.156Z,6.80
2018-08-19T00:36:24.567Z,5.60
2018-08-19T00:38:53.581Z,4.83
2018-08-19T00:41:22.031Z,5.50
2018-08-19T00:43:50.543Z,5.03
2018-08-19T00:46:26.887Z,4.50
2018-08-19T00:48:55.287Z,6.50
2018-08-19T00:51:23.687Z,5.20
2018-08-19T00:53:52.093Z,5.17
2018-08-19T00:56:20.504Z,4.90
2018-08-19T00:58:48.971Z,6.10
2018-08-19T01:01:30.061Z,7.60
2018-08-19T01:03:59.308Z,7.33
2018-08-19T01:06:28.059Z,6.57
2018-08-19T01:08:56.597Z,6.90
2018-08-19T01:11:35.503Z,7.50
2018-08-19T01:14:08.957Z,7.30
2018-08-19T01:16:37.375Z,7.57
2018-08-19T01:19:05.845Z,6.80
2018-08-19T01:21:34.352Z,6.00
2018-08-19T01:24:05.395Z,7.03
2018-08-19T01:26:35.079Z,6.57
2018-08-19T01:29:03.897Z,6.60
2018-08-19T01:31:32.307Z,6.17
2018-08-19T01:34:00.780Z,5.60
2018-08-19T01:36:30.331Z,6.87
2018-08-19T01:38:58.825Z,5.97
2018-08-19T01:41:27.695Z,5.70
2018-08-19T01:44:03.455Z,4.80
2018-08-19T01:46:35.983Z,6.10
2018-08-19T01:49:04.981Z,5.57
2018-08-19T01:51:34.111Z,5.80
2018-08-19T01:54:07.831Z,5.73
2018-08-19T01:56:36.243Z,6.60
2018-08-19T01:59:04.669Z,6.37
2018-08-19T02:01:45.145Z,6.67
2018-08-19T02:04:13.932Z,6.93
2018-08-19T02:06:43.600Z,7.67
2018-08-19T02:09:13.400Z,6.10
2018-08-19T02:11:50.185Z,6.63
2018-08-19T02:14:19.375Z,7.40
2018-08-19T02:16:49.551Z,6.70
2018-08-19T02:19:18.426Z,7.30
2018-08-19T02:21:47.595Z,6.50
2018-08-19T02:24:16.368Z,7.13
2018-08-19T02:26:44.799Z,6.70
2018-08-19T02:29:29.967Z,6.27
2018-08-19T02:31:59.951Z,7.43
2018-08-19T02:34:31.401Z,6.03
2018-08-19T02:37:04.133Z,5.93
2018-08-19T02:39:34.105Z,6.00
2018-08-19T02:42:02.563Z,6.20
2018-08-19T02:44:30.999Z,5.90
2018-08-19T02:46:59.731Z,6.80
2018-08-19T02:49:28.174Z,6.70
2018-08-19T02:51:56.605Z,7.33
2018-08-19T02:54:25.009Z,7.17
2018-08-19T02:56:53.420Z,6.60
2018-08-19T02:59:21.847Z,7.00
2018-08-19T03:01:50.380Z,7.20
2018-08-19T03:04:18.785Z,7.20
2018-08-19T03:06:47.227Z,6.90
2018-08-19T03:09:15.730Z,6.50
2018-08-19T03:11:44.262Z,7.63
2018-08-19T03:14:12.691Z,6.60
2018-08-19T03:16:41.209Z,6.97
2018-08-19T03:19:09.655Z,6.30
2018-08-19T03:21:38.105Z,7.50
2018-08-19T03:24:06.661Z,7.80
2018-08-19T03:26:35.199Z,7.53
2018-08-19T03:29:07.819Z,6.47
2018-08-19T03:31:36.347Z,7.20
2018-08-19T03:34:04.774Z,6.30
2018-08-19T03:36:33.271Z,6.40
2018-08-19T03:39:14.519Z,7.00
2018-08-19T03:41:43.641Z,8.20
2018-08-19T03:44:12.026Z,7.33
2018-08-19T03:46:40.561Z,8.50
2018-08-19T03:49:08.981Z,7.57
2018-08-19T03:51:37.389Z,7.77
2018-08-19T03:54:05.827Z,7.73
2018-08-19T03:56:34.359Z,8.30
2018-08-19T03:59:06.071Z,8.30
2018-08-19T04:01:42.487Z,8.03
2018-08-19T04:04:12.263Z,8.90
2018-08-19T04:06:41.115Z,8.53
2018-08-19T04:09:09.595Z,7.70
2018-08-19T04:11:38.175Z,7.60
2018-08-19T04:14:37.777Z,8.30
2018-08-19T04:17:07.215Z,8.50
2018-08-19T04:19:35.765Z,7.87
2018-08-19T04:22:05.581Z,8.80
2018-08-19T04:24:34.571Z,9.03
2018-08-19T04:27:10.027Z,8.73
2018-08-19T04:29:38.831Z,10.13
2018-08-19T04:32:11.061Z,8.13
2018-08-19T04:34:40.511Z,9.70
2018-08-19T04:37:08.955Z,8.00
2018-08-19T04:39:37.391Z,8.77
2018-08-19T04:42:06.242Z,8.77
2018-08-19T04:44:34.604Z,8.17
2018-08-19T04:47:17.156Z,9.40
2018-08-19T04:49:45.622Z,8.83
2018-08-19T04:52:15.448Z,8.03
2018-08-19T04:54:43.851Z,8.50
2018-08-19T04:57:12.265Z,7.60
2018-08-19T04:59:40.664Z,8.20
2018-08-19T05:02:09.311Z,7.40
2018-08-19T05:04:37.619Z,7.80
2018-08-19T05:07:06.164Z,6.60
2018-08-19T05:09:34.539Z,7.20
2018-08-19T05:12:03.019Z,7.60
2018-08-19T05:14:31.607Z,7.73
2018-08-19T05:17:00.111Z,7.77
2018-08-19T05:19:28.509Z,6.60
2018-08-19T05:22:01.520Z,6.37
2018-08-19T05:24:29.939Z,6.60
2018-08-19T05:27:02.560Z,7.50
2018-08-19T05:29:31.082Z,7.37
2018-08-19T05:31:59.627Z,7.97
2018-08-19T05:34:31.464Z,7.37
2018-08-19T05:37:00.043Z,6.83
2018-08-19T05:39:28.646Z,7.43
2018-08-19T05:42:07.591Z,7.20
2018-08-19T05:44:37.375Z,5.87
2018-08-19T05:47:07.816Z,6.40
2018-08-19T05:49:38.127Z,6.20
2018-08-19T05:52:10.796Z,6.90
2018-08-19T05:54:44.296Z,6.93
2018-08-19T05:57:13.116Z,8.43
2018-08-19T05:59:41.524Z,7.00
2018-08-19T06:02:10.036Z,8.20
2018-08-19T06:04:38.436Z,7.37
2018-08-19T06:07:06.928Z,7.93
2018-08-19T06:09:35.976Z,7.87
2018-08-19T06:12:04.959Z,7.60
2018-08-19T06:14:33.656Z,7.80
2018-08-19T06:17:03.871Z,7.13
2018-08-19T06:19:33.270Z,8.40
2018-08-19T06:22:01.826Z,7.87
2018-08-19T06:24:30.158Z,7.60
2018-08-19T06:26:58.548Z,8.37
2018-08-19T06:29:43.415Z,8.50
2018-08-19T06:32:24.847Z,9.20
2018-08-19T06:34:53.413Z,8.53
2018-08-19T06:37:22.433Z,8.00
2018-08-19T06:39:51.999Z,8.50
2018-08-19T06:42:21.142Z,9.07
2018-08-19T06:44:49.545Z,9.03
2018-08-19T06:47:18.005Z,7.83
2018-08-19T06:49:51.876Z,8.53
2018-08-19T06:52:21.076Z,8.67
2018-08-19T06:54:49.462Z,8.10
2018-08-19T06:57:17.917Z,8.10
2018-08-19T06:59:46.389Z,8.73
2018-08-19T07:02:14.785Z,7.90
2018-08-19T07:04:44.305Z,8.90
2018-08-19T07:07:14.027Z,7.97
2018-08-19T07:09:42.814Z,8.60
2018-08-19T07:12:13.933Z,6.70
2018-08-19T07:14:42.746Z,8.37
2018-08-19T07:17:11.351Z,8.57
2018-08-19T07:19:39.887Z,8.70
2018-08-19T07:22:09.208Z,8.07
2018-08-19T07:24:38.937Z,7.93
2018-08-19T07:27:09.543Z,7.50
2018-08-19T07:29:38.033Z,7.63
2018-08-19T07:32:07.641Z,7.80
2018-08-19T07:34:36.161Z,7.40
2018-08-19T07:37:04.665Z,6.27
2018-08-19T07:39:43.471Z,7.13
2018-08-19T07:42:12.007Z,6.70
2018-08-19T07:44:40.477Z,6.80
2018-08-19T07:47:08.955Z,7.10
2018-08-19T07:49:37.405Z,7.50
2018-08-19T07:52:06.228Z,7.03
2018-08-19T07:54:34.681Z,6.77
2018-08-19T07:57:10.045Z,5.60
2018-08-19T07:59:38.475Z,6.20
2018-08-19T08:02:07.939Z,7.07
2018-08-19T08:04:45.107Z,7.00
2018-08-19T08:07:14.564Z,7.77
2018-08-19T08:09:43.498Z,8.60
2018-08-19T08:12:13.307Z,6.30
2018-08-19T08:14:47.342Z,5.60
2018-08-19T08:17:15.810Z,5.70
2018-08-19T08:19:49.569Z,5.10
2018-08-19T08:22:18.049Z,5.70
2018-08-19T08:24:46.465Z,6.00
2018-08-19T08:27:14.965Z,6.80
2018-08-19T08:29:43.413Z,5.83
2018-08-19T08:32:12.815Z,10.30
2018-08-19T08:34:41.259Z,6.83
2018-08-19T08:37:10.404Z,7.53
2018-08-19T08:39:38.862Z,7.07
2018-08-19T08:42:07.816Z,6.30
2018-08-19T08:44:36.249Z,6.27
2018-08-19T08:47:08.295Z,6.60
2018-08-19T08:49:42.088Z,7.07
2018-08-19T08:52:16.704Z,7.93
2018-08-19T08:54:50.524Z,7.20
2018-08-19T08:57:20.146Z,6.50
2018-08-19T08:59:48.765Z,7.00
2018-08-19T09:02:17.184Z,7.20
2018-08-19T09:04:45.792Z,6.40
2018-08-19T09:07:14.411Z,7.70
2018-08-19T09:09:44.236Z,6.97
2018-08-19T09:12:13.573Z,6.70
2018-08-19T09:14:42.623Z,7.17
2018-08-19T09:17:11.539Z,7.20
2018-08-19T09:19:41.097Z,5.80
2018-08-19T09:22:09.984Z,6.90
2018-08-19T09:24:38.854Z,6.90
2018-08-19T09:27:13.888Z,6.40
2018-08-19T09:29:42.258Z,5.53
2018-08-19T09:32:10.682Z,5.63
2018-08-19T09:34:39.114Z,6.10
2018-08-19T09:37:07.696Z,6.50
2018-08-19T09:39:36.096Z,7.20
2018-08-19T09:42:12.176Z,6.33
2018-08-19T09:44:41.780Z,6.40
2018-08-19T09:47:10.480Z,5.50
2018-08-19T09:49:39.146Z,7.43
2018-08-19T09:52:07.843Z,7.07
2018-08-19T09:54:37.317Z,7.10
2018-08-19T09:57:06.962Z,6.50
2018-08-19T09:59:35.517Z,6.70
2018-08-19T10:02:05.979Z,7.10
2018-08-19T10:04:34.827Z,7.20
2018-08-19T10:07:07.619Z,6.93
2018-08-19T10:09:36.033Z,6.13
2018-08-19T10:12:04.479Z,7.07
2018-08-19T10:14:32.921Z,7.40
2018-08-19T10:17:01.341Z,6.90
2018-08-19T10:19:29.785Z,6.90
2018-08-19T10:21:58.313Z,6.80
2018-08-19T10:24:34.217Z,7.00
2018-08-19T10:27:06.897Z,6.53
2018-08-19T10:29:35.305Z,6.70
2018-08-19T10:32:04.353Z,6.73
2018-08-19T10:34:34.057Z,7.53
2018-08-19T10:37:03.024Z,6.50
2018-08-19T10:39:31.596Z,7.80
2018-08-19T10:42:20.481Z,6.87
2018-08-19T10:44:50.964Z,6.50
2018-08-19T10:47:20.288Z,7.83
2018-08-19T10:49:54.033Z,7.07
2018-08-19T10:52:25.958Z,6.30
2018-08-19T10:54:56.585Z,7.10
2018-08-19T10:57:25.053Z,7.60
2018-08-19T10:59:55.890Z,6.77
2018-08-19T11:02:24.562Z,7.43
2018-08-19T11:04:58.169Z,7.53
2018-08-19T11:07:26.577Z,6.77
2018-08-19T11:10:11.625Z,6.90
2018-08-19T11:12:40.060Z,7.50
2018-08-19T11:15:24.089Z,6.83
2018-08-19T11:17:52.917Z,7.23
2018-08-19T11:20:25.585Z,7.10
2018-08-19T11:22:54.793Z,7.50
2018-08-19T11:25:26.900Z,7.40
2018-08-19T11:27:55.961Z,6.93
2018-08-19T11:30:25.043Z,7.20
2018-08-19T11:32:53.964Z,7.13
2018-08-19T11:35:26.529Z,8.67
2018-08-19T11:37:54.921Z,6.73
2018-08-19T11:40:23.344Z,7.07
2018-08-19T11:42:51.794Z,7.07
2018-08-19T11:45:20.364Z,8.10
2018-08-19T11:47:53.051Z,9.20
2018-08-19T11:50:21.517Z,8.67
2018-08-19T11:52:54.420Z,7.80
2018-08-19T11:55:22.916Z,7.73
2018-08-19T11:57:51.409Z,8.77
2018-08-19T12:00:19.895Z,7.60
2018-08-19T12:02:48.307Z,8.70
2018-08-19T12:05:16.708Z,7.97
2018-08-19T12:07:48.471Z,8.00
2018-08-19T12:10:16.936Z,7.80
2018-08-19T12:12:49.327Z,8.70
2018-08-19T12:15:17.839Z,9.57
2018-08-19T12:17:46.251Z,8.00
2018-08-19T12:20:17.777Z,8.00
2018-08-19T12:22:46.539Z,7.67
2018-08-19T12:25:14.965Z,8.50
2018-08-19T12:27:43.518Z,7.73
2018-08-19T12:30:15.150Z,8.43
2018-08-19T12:32:43.656Z,8.27
2018-08-19T12:35:12.148Z,7.70
2018-08-19T12:37:40.984Z,8.27
2018-08-19T12:40:09.364Z,8.43
2018-08-19T12:42:42.980Z,8.00
2018-08-19T12:45:11.760Z,8.43
2018-08-19T12:47:40.222Z,8.50
2018-08-19T12:50:12.148Z,8.57
2018-08-19T12:52:40.625Z,8.00
2018-08-19T12:55:10.259Z,7.93
2018-08-19T12:57:40.464Z,9.50
2018-08-19T13:00:16.726Z,9.00
2018-08-19T13:02:46.965Z,8.30
2018-08-19T13:05:16.286Z,7.60
2018-08-19T13:07:45.028Z,7.40
2018-08-19T13:10:13.437Z,8.13
2018-08-19T13:12:47.179Z,8.17
2018-08-19T13:15:15.881Z,7.60
2018-08-19T13:17:44.293Z,7.90
2018-08-19T13:20:12.739Z,8.17
2018-08-19T13:22:47.979Z,8.13
2018-08-19T13:25:16.791Z,8.70
2018-08-19T13:27:45.176Z,8.70
2018-08-19T13:30:13.770Z,8.80
2018-08-19T13:32:42.167Z,9.20
2018-08-19T13:35:10.807Z,9.33
2018-08-19T13:37:39.380Z,9.10
2018-08-19T13:40:09.554Z,8.67
2018-08-19T13:42:38.018Z,8.90
2018-08-19T13:45:11.881Z,8.23
2018-08-19T13:47:41.380Z,7.87
2018-08-19T13:50:10.000Z,9.07
2018-08-19T13:52:38.873Z,9.20
2018-08-19T13:55:10.606Z,9.37
2018-08-19T13:57:39.191Z,8.70
2018-08-19T14:00:13.285Z,9.53
2018-08-19T14:02:41.945Z,9.20
2018-08-19T14:05:10.509Z,8.80
2018-08-19T14:07:39.085Z,8.47
2018-08-19T14:10:09.007Z,8.10
2018-08-19T14:12:37.470Z,8.47
2018-08-19T14:15:06.039Z,8.17
2018-08-19T14:17:34.561Z,8.67
2018-08-19T14:20:03.052Z,8.97
2018-08-19T14:22:31.479Z,8.33
2018-08-19T14:24:59.912Z,8.53
2018-08-19T14:27:28.332Z,8.37
2018-08-19T14:29:56.749Z,8.23
2018-08-19T14:32:34.680Z,8.30
2018-08-19T14:35:04.039Z,7.93
2018-08-19T14:37:32.491Z,9.13
2018-08-19T14:40:01.748Z,9.07
2018-08-19T14:42:30.161Z,6.80
2018-08-19T14:44:59.485Z,8.23
2018-08-19T14:47:28.283Z,9.10
2018-08-19T14:49:57.819Z,8.80
2018-08-19T14:52:26.990Z,8.97
2018-08-19T14:54:55.491Z,8.93
2018-08-19T14:57:24.243Z,9.60
2018-08-19T14:59:52.905Z,8.20
2018-08-19T15:02:21.295Z,7.30
2018-08-19T15:04:49.705Z,8.57
2018-08-19T15:07:18.145Z,10.20
2018-08-19T15:09:48.137Z,9.50
2018-08-19T15:12:18.611Z,8.57
2018-08-19T15:14:47.194Z,8.63
2018-08-19T15:17:15.648Z,9.10
2018-08-19T15:19:46.322Z,9.10
2018-08-19T15:22:15.263Z,8.13
2018-08-19T15:24:43.683Z,8.13
2018-08-19T15:27:12.503Z,8.30
2018-08-19T15:29:43.325Z,9.63
2018-08-19T15:32:12.184Z,8.13
2018-08-19T15:34:40.536Z,9.57
2018-08-19T15:37:08.964Z,8.43
2018-08-19T15:39:37.380Z,9.53
2018-08-19T15:42:05.904Z,10.27
2018-08-19T15:44:34.362Z,10.83
2018-08-19T15:47:04.403Z,10.10
2018-08-19T15:49:32.749Z,9.93
2018-08-19T15:52:01.206Z,8.60
2018-08-19T15:54:29.625Z,9.87
2018-08-19T15:57:01.800Z,9.83
2018-08-19T15:59:34.632Z,9.03
2018-08-19T16:02:03.391Z,10.50
2018-08-19T16:04:31.868Z,8.50
2018-08-19T16:07:01.149Z,10.00
2018-08-19T16:09:30.096Z,10.97
2018-08-19T16:11:58.695Z,9.80
2018-08-19T16:14:28.560Z,9.50
2018-08-19T16:16:58.351Z,10.10
2018-08-19T16:19:26.823Z,10.07
2018-08-19T16:21:56.636Z,10.17
2018-08-19T16:24:26.085Z,10.40
2018-08-19T16:26:55.909Z,10.87
2018-08-19T16:29:24.391Z,10.63
2018-08-19T16:31:52.991Z,12.93
2018-08-19T16:34:21.369Z,10.53
2018-08-19T16:36:49.781Z,10.60
2018-08-19T16:39:19.034Z,10.73
2018-08-19T16:41:48.373Z,10.80
2018-08-19T16:44:17.521Z,10.87
2018-08-19T16:46:45.948Z,11.90
2018-08-19T16:49:14.383Z,9.90
2018-08-19T16:51:42.827Z,10.47
2018-08-19T16:54:11.289Z,9.70
2018-08-19T16:56:39.696Z,9.80
2018-08-19T16:59:08.249Z,9.30
2018-08-19T17:01:36.699Z,12.20
2018-08-19T17:04:05.219Z,12.00
2018-08-19T17:06:33.709Z,9.60
2018-08-19T17:09:02.151Z,13.23
2018-08-19T17:11:30.535Z,11.87
2018-08-19T17:13:58.979Z,11.13
2018-08-19T17:16:27.388Z,10.47
2018-08-19T17:18:55.819Z,10.00
2018-08-19T17:21:24.321Z,11.57
2018-08-19T17:23:52.771Z,9.33
2018-08-19T17:26:25.042Z,8.93
2018-08-19T17:28:53.723Z,9.77
2018-08-19T17:31:22.278Z,8.97
2018-08-19T17:33:50.677Z,9.50
2018-08-19T17:36:25.551Z,10.10
2018-08-19T17:38:53.995Z,9.67
2018-08-19T17:41:23.361Z,10.23
2018-08-19T17:43:51.866Z,10.57
2018-08-19T17:46:20.751Z,9.70
2018-08-19T17:48:49.549Z,10.87
2018-08-19T17:51:27.405Z,8.83
2018-08-19T17:53:56.968Z,10.03
2018-08-19T17:56:25.587Z,9.40
2018-08-19T17:58:54.067Z,10.17
2018-08-19T18:01:22.731Z,9.93
2018-08-19T18:03:51.367Z,9.87
2018-08-19T18:06:19.841Z,10.60
2018-08-19T18:08:53.142Z,10.00
2018-08-19T18:11:22.027Z,10.73
2018-08-19T18:13:50.813Z,9.40
2018-08-19T18:16:19.383Z,11.37
2018-08-19T18:18:48.587Z,10.20
2018-08-19T18:21:17.039Z,10.80
2018-08-19T18:23:47.495Z,10.70
2018-08-19T18:26:16.198Z,10.80
2018-08-19T18:28:47.349Z,10.63
2018-08-19T18:31:20.385Z,10.60
2018-08-19T18:33:56.321Z,12.80
2018-08-19T18:36:25.768Z,10.93
2018-08-19T18:38:54.279Z,13.77
2018-08-19T18:41:30.127Z,12.00
2018-08-19T18:44:00.667Z,10.70
2018-08-19T18:46:30.459Z,12.30
2018-08-19T18:49:19.317Z,10.50
2018-08-19T18:51:52.192Z,11.83
2018-08-19T18:54:26.679Z,9.70
2018-08-19T18:56:55.123Z,11.33
2018-08-19T18:59:23.751Z,12.03
2018-08-19T19:01:55.221Z,11.33
2018-08-19T19:04:23.643Z,12.17
2018-08-19T19:06:52.206Z,12.67
2018-08-19T19:09:20.641Z,11.23
2018-08-19T19:11:50.879Z,11.67
2018-08-19T19:14:20.325Z,10.43
2018-08-19T19:16:50.815Z,11.50
2018-08-19T19:19:19.288Z,13.23
2018-08-19T19:21:53.277Z,11.27
2018-08-19T19:24:29.845Z,10.87
2018-08-19T19:26:58.655Z,11.47
2018-08-19T19:29:28.065Z,11.43
2018-08-19T19:31:57.691Z,11.10
2018-08-19T19:34:30.102Z,12.23
2018-08-19T19:36:58.522Z,11.60
2018-08-19T19:39:26.931Z,10.43
2018-08-19T19:42:02.559Z,11.10
2018-08-19T19:44:34.509Z,9.63
2018-08-19T19:47:03.147Z,11.27
2018-08-19T19:49:31.679Z,11.20
2018-08-19T19:52:01.924Z,11.73
2018-08-19T19:54:31.727Z,12.73
2018-08-19T19:57:00.824Z,14.03
2018-08-19T19:59:30.715Z,12.90
2018-08-19T20:01:59.345Z,12.03
2018-08-19T20:04:27.747Z,10.87
2018-08-19T20:06:56.219Z,11.73
2018-08-19T20:09:24.872Z,12.13
2018-08-19T20:11:53.277Z,11.20
2018-08-19T20:14:21.953Z,13.60
2018-08-19T20:16:50.395Z,11.40
2018-08-19T20:19:20.221Z,10.87
2018-08-19T20:21:48.628Z,10.63
2018-08-19T20:24:17.043Z,12.47
2018-08-19T20:26:45.455Z,11.80
2018-08-19T20:29:13.886Z,10.93
2018-08-19T20:31:42.353Z,10.60
2018-08-19T20:34:10.761Z,11.27
2018-08-19T20:36:39.174Z,11.23
2018-08-19T20:39:07.910Z,12.23
2018-08-19T20:41:36.410Z,11.70
2018-08-19T20:44:08.588Z,10.77
2018-08-19T20:46:41.316Z,11.40
2018-08-19T20:49:09.800Z,14.20
2018-08-19T20:51:38.212Z,13.10
2018-08-19T20:54:06.728Z,12.33
2018-08-19T20:56:35.206Z,13.20
2018-08-19T20:59:05.188Z,13.00
2018-08-19T21:01:33.632Z,10.00
2018-08-19T21:04:02.208Z,9.90
2018-08-19T21:06:30.718Z,13.23
2018-08-19T21:08:59.094Z,10.50
2018-08-19T21:11:27.511Z,10.67
2018-08-19T21:13:55.895Z,12.57
2018-08-19T21:16:24.291Z,13.77
2018-08-19T21:18:52.727Z,11.30
2018-08-19T21:21:21.164Z,11.03
2018-08-19T21:23:49.589Z,23.30
2018-08-19T21:26:18.025Z,10.43
2018-08-19T21:28:51.821Z,9.53
2018-08-19T21:31:20.268Z,9.97
2018-08-19T21:33:48.737Z,10.50
2018-08-19T21:36:17.138Z,11.27
2018-08-19T21:38:45.571Z,11.90
2018-08-19T21:41:14.021Z,11.63
2018-08-19T21:43:43.365Z,14.23
2018-08-19T21:46:11.877Z,15.43
2018-08-19T21:48:40.295Z,11.67
2018-08-19T21:51:08.998Z,16.10
2018-08-19T21:53:38.197Z,32.80
2018-08-19T21:56:06.791Z,26.27
2018-08-19T21:58:35.232Z,17.90
2018-08-19T22:01:07.967Z,19.43
2018-08-19T22:03:41.815Z,22.23
2018-08-19T22:06:10.252Z,12.60
2018-08-19T22:08:38.807Z,11.40
2018-08-19T22:11:07.281Z,27.90
2018-08-19T22:13:35.705Z,20.23
2018-08-19T22:16:04.241Z,18.90
2018-08-19T22:18:32.666Z,17.23
2018-08-19T22:21:09.992Z,14.63
2018-08-19T22:23:42.516Z,12.43
2018-08-19T22:26:12.063Z,13.00
2018-08-19T22:28:40.819Z,14.80
2018-08-19T22:31:21.274Z,15.00
2018-08-19T22:33:53.854Z,14.07
2018-08-19T22:36:22.541Z,12.97
2018-08-19T22:38:51.635Z,12.97
2018-08-19T22:41:26.271Z,11.73
2018-08-19T22:43:56.179Z,12.53
2018-08-19T22:46:25.368Z,15.10
2018-08-19T22:48:54.475Z,25.70
2018-08-19T22:51:23.022Z,28.70
2018-08-19T22:53:52.750Z,20.90
2018-08-19T22:56:21.704Z,12.63
2018-08-19T22:58:50.121Z,11.30
2018-08-19T23:01:19.510Z,12.20
2018-08-19T23:03:48.412Z,11.77
2018-08-19T23:06:16.868Z,13.40
2018-08-19T23:08:45.348Z,11.20
2018-08-19T23:11:13.749Z,12.50
2018-08-19T23:13:53.420Z,12.40
2018-08-19T23:16:22.268Z,12.90
2018-08-19T23:18:50.708Z,11.40
2018-08-19T23:21:19.104Z,12.27
2018-08-19T23:23:47.568Z,10.80
2018-08-19T23:26:15.980Z,12.20
2018-08-19T23:28:44.378Z,12.30
2018-08-19T23:31:12.938Z,11.40
2018-08-19T23:33:41.508Z,11.80
2018-08-19T23:36:09.912Z,11.83
2018-08-19T23:38:38.323Z,12.13
2018-08-19T23:41:06.757Z,11.43
2018-08-19T23:43:35.222Z,13.10
2018-08-19T23:46:03.667Z,13.83
2018-08-19T23:48:32.443Z,13.03
2018-08-19T23:51:00.986Z,11.80
2018-08-19T23:53:29.398Z,12.03
2018-08-19T23:55:57.812Z,12.30
2018-08-19T23:58:26.260Z,13.13
